Guilford, Kansas
Current Conditions -  °F | °C
As of 7:37 PM on Friday 19 Dec 2014 (Local Time) from KCNU Reporting Station
Haze Haze  
Wind Chill: 31°   Ceiling: 200
Heat Index: 35°   Visibility: 1mi
Dew Point: 35°   Wind: 5mph
Humidity: 100%   Direction: 320°NW
Pressure: 30.21"   Gusts: NA
Location:  37.5152°N, 95.6341°W
Report Text: KCNU 200137Z AUTO 32004KT 1SM BR OVC002 02/02 A3021 RMK AO2 T00170017
Loading
Personal Weather Stations






























Interactive Weather Map New forecast layout! Learn more

10-Day Weather Forecast

Advertisements
Track Severe Weather on mobile